Ana Sayfa
METAR-TAF:

METAR-TAF

Havaalanları :

Bahreyn, Bahreyn

Enlem: 26-16N, Boylam: 050-39E, yükseklik: 2 m

Güncel hava durumu gözlemi

Rapor saat 19:00 UTC de 11 dakika önce yapıldı.
Rüzgar kuzeybatıdan 15 kt
Sıcaklık 34°C
Nem 50%
Basınç 1002 hPa
Görüş mesafesi 10 km veya daha fazla
1500 m altında bulut yok ve kümülonimbus yok

METAR: OBBI 051900Z 31015KT CAVOK 34/22 Q1002 NOSIG

Saat: 22:11 (19:11 UTC)

Tahmin

Rapor saat 17:00 UTC de 2 saat ve 11 dakika önce yapıldı.
Ayın 05'si saat 18 UTC'den ayın 07'si saat 00 UTC'ye kadar geçerli Tahmin
Rüzgar kuzey/kuzeybatıdan 17 kt
Görüş mesafesi: 8000 m
Dönüşüyor
ayın 06'si saat 04 UTC'den ayın 06'si saat 06 UTC'ye kadar
Rüzgar kuzey/kuzeybatıdan 20 kt ve 30 kt'a kadar ani rüzgarlar
Dönüşüyor
ayın 06'si saat 14 UTC'den ayın 06'si saat 16 UTC'ye kadar
Rüzgar kuzey/kuzeybatıdan 15 kt

TAF: OBBI 051700Z 0518/0700 33017KT 8000 NSC BECMG 0604/0606 33020G30KT BECMG 0614/0616 33015KT

4.000'den fazla havaalanı için hava durumu gözlemleri ve tahminleri (METAR ve TAF raporları).

Kullanılabilir istasyonlar harita üzerinde sarı ve kırmızı noktalarla gösterilir.

İstasyonun adını görmek için fareyi noktanın üzerinde gezdirin.

Sonrasında hava gözlem ve tahminlerini görmek için tıklayın.

Haritayı değiştirmek için: yaklaştırmak için siyah artı işaretli yeşil düğmeye ve uzaklaştırmak için de eksi işaretli düğmeye hızla tıklayın; bitişik haritalar için yeşil okları kullanın.


METAR-TAF: